Time;durP1;ratioP1;P1;durP2;ratioP2;P2;SDS_P1;SDS_P2;PMS_P1;PMS_P2;Temp;Humidity;BMP_temperature;BMP_pressure;BME280_temperature;BME280_humidity;BME280_pressure;Samples;Min_cycle;Max_cycle;Signal;HPM_P1;HPM_P2
2022/10/12 00:01:15;;;;;;;47.60;31.42;;;;;;;18.07;64.83;100332.34;5110546;28;20369;-42
2022/10/12 00:03:41;;;;;;;44.78;31.33;;;;;;;18.09;64.42;100329.41;5111016;28;20027;-41
2022/10/12 00:06:11;;;;;;;41.45;29.85;;;;;;;18.07;64.52;100326.13;5110817;28;20066;-41
2022/10/12 00:08:37;;;;;;;39.63;26.42;;;;;;;17.67;64.71;100318.78;5110735;28;20074;-42
2022/10/12 00:11:05;;;;;;;33.78;23.75;;;;;;;17.64;64.83;100324.66;5110326;28;20024;-41
2022/10/12 00:13:31;;;;;;;26.70;19.52;;;;;;;17.53;63.69;100320.91;5110664;28;20012;-43
2022/10/12 00:16:01;;;;;;;27.50;17.15;;;;;;;17.69;62.64;100322.91;5113748;28;20506;-42
2022/10/12 00:18:26;;;;;;;26.88;17.17;;;;;;;17.62;63.31;100330.28;5114993;28;20019;-42
2022/10/12 00:21:07;;;;;;;23.40;15.30;;;;;;;17.57;62.56;100332.84;5114825;28;20026;-42
2022/10/12 00:23:34;;;;;;;20.48;13.75;;;;;;;17.37;62.30;100334.03;5113804;28;20081;-42
2022/10/12 00:26:02;;;;;;;20.95;14.07;;;;;;;17.24;62.83;100336.13;5115091;28;20034;-42
2022/10/12 00:28:28;;;;;;;20.90;14.05;;;;;;;17.43;62.75;100328.78;5114962;28;20023;-43
2022/10/12 00:30:53;;;;;;;16.40;12.52;;;;;;;17.37;62.59;100331.34;5114833;28;20072;-42
2022/10/12 00:33:18;;;;;;;17.73;12.23;;;;;;;17.19;62.49;100326.91;5114897;28;20476;-43
2022/10/12 00:35:44;;;;;;;17.92;12.50;;;;;;;17.17;62.82;100331.69;5114737;28;20016;-42
2022/10/12 00:38:10;;;;;;;17.35;12.20;;;;;;;17.42;62.20;100333.34;5114649;28;20053;-42
2022/10/12 00:40:36;;;;;;;16.95;11.70;;;;;;;17.58;61.85;100335.31;5114542;28;20051;-43
2022/10/12 00:43:01;;;;;;;16.65;11.80;;;;;;;17.82;61.11;100337.97;5114737;28;20115;-42
2022/10/12 00:45:27;;;;;;;17.48;12.00;;;;;;;17.89;60.33;100335.97;5114549;28;20028;-42
2022/10/12 00:47:59;;;;;;;15.52;11.30;;;;;;;17.86;60.67;100333.78;5114296;28;20115;-42
2022/10/12 00:50:31;;;;;;;15.85;11.45;;;;;;;17.92;60.16;100332.03;5114535;28;20074;-42
2022/10/12 00:52:56;;;;;;;16.55;11.85;;;;;;;17.87;60.42;100335.41;5114574;28;20024;-43
2022/10/12 00:55:25;;;;;;;15.82;11.35;;;;;;;17.84;60.55;100335.91;5114380;28;20116;-42
2022/10/12 00:57:52;;;;;;;15.63;11.87;;;;;;;17.96;60.20;100338.56;5113985;28;20475;-43
2022/10/12 01:00:19;;;;;;;14.80;11.23;;;;;;;17.97;60.20;100326.72;5114111;28;20019;-42
2022/10/12 01:02:47;;;;;;;15.05;10.85;;;;;;;18.03;60.39;100333.03;5113930;28;20424;-43
2022/10/12 01:05:13;;;;;;;16.52;11.82;;;;;;;18.04;60.67;100327.41;5113354;28;20129;-43
2022/10/12 01:07:39;;;;;;;16.92;11.93;;;;;;;18.02;60.49;100323.31;5113540;28;20028;-42
2022/10/12 01:10:05;;;;;;;21.13;11.88;;;;;;;18.00;60.42;100328.13;5114295;28;20518;-43
2022/10/12 01:12:33;;;;;;;17.70;12.27;;;;;;;17.91;60.35;100319.59;5113831;28;20020;-43
2022/10/12 01:14:59;;;;;;;19.88;11.85;;;;;;;17.85;60.41;100323.25;5113975;28;20098;-42
2022/10/12 01:17:40;;;;;;;18.70;12.20;;;;;;;17.84;60.16;100325.13;5113785;28;20152;-43
2022/10/12 01:20:47;;;;;;;16.65;11.93;;;;;;;17.62;61.88;100327.56;5114017;28;20020;-42
2022/10/12 01:23:16;;;;;;;17.42;11.63;;;;;;;17.69;61.39;100328.28;5102347;28;20085;-42
2022/10/12 01:25:41;;;;;;;18.63;12.80;;;;;;;17.71;61.32;100330.75;5112658;28;20396;-41
2022/10/12 01:28:22;;;;;;;18.05;12.82;;;;;;;17.81;61.43;100330.94;5112839;28;20060;-42
2022/10/12 01:30:51;;;;;;;22.05;14.25;;;;;;;17.75;61.71;100331.91;5113698;28;20023;-42
2022/10/12 01:33:32;;;;;;;21.25;15.20;;;;;;;17.90;61.42;100331.44;5113512;28;20028;-43
2022/10/12 01:36:11;;;;;;;21.75;14.85;;;;;;;17.92;61.37;100319.38;5113472;28;20034;-42
2022/10/12 01:38:42;;;;;;;19.42;14.35;;;;;;;18.02;60.84;100332.22;5113556;28;20071;-42
2022/10/12 01:41:33;;;;;;;21.48;13.82;;;;;;;17.79;61.78;100333.88;5113521;28;20034;-43
2022/10/12 01:43:59;;;;;;;21.02;13.18;;;;;;;17.47;62.95;100340.69;5113291;27;20028;-43
2022/10/12 01:46:24;;;;;;;18.73;13.45;;;;;;;17.57;62.06;100338.22;5113368;28;20028;-43
2022/10/12 01:48:54;;;;;;;20.52;14.00;;;;;;;17.71;61.47;100339.63;5113371;28;20111;-43
2022/10/12 01:51:44;;;;;;;21.83;14.35;;;;;;;17.70;61.48;100337.97;5113089;28;20034;-43
2022/10/12 01:54:25;;;;;;;18.60;13.48;;;;;;;17.82;60.96;100347.91;5113081;28;20039;-43
2022/10/12 01:57:00;;;;;;;20.85;14.10;;;;;;;17.82;61.00;100343.38;5112196;28;20027;-43
2022/10/12 01:59:47;;;;;;;18.10;13.18;;;;;;;17.98;60.88;100348.03;5112919;28;20106;-43
2022/10/12 02:02:47;;;;;;;17.90;11.93;;;;;;;18.00;60.52;100341.59;5112821;28;20077;-43
2022/10/12 02:05:26;;;;;;;15.68;11.32;;;;;;;17.97;60.77;100335.63;5113360;28;20042;-43
2022/10/12 02:08:09;;;;;;;15.23;9.38;;;;;;;17.87;59.47;100340.78;5112935;27;20106;-43
2022/10/12 02:11:12;;;;;;;17.13;11.00;;;;;;;17.93;59.33;100339.88;5113113;28;20057;-42
2022/10/12 02:14:08;;;;;;;15.70;9.75;;;;;;;17.67;59.94;100341.16;5112693;28;20019;-43
2022/10/12 02:16:39;;;;;;;12.27;7.30;;;;;;;17.44;60.46;100342.00;5104287;28;20043;-44
2022/10/12 02:19:10;;;;;;;12.55;7.68;;;;;;;17.45;59.75;100343.63;5112573;28;20506;-42
2022/10/12 02:21:36;;;;;;;9.90;6.72;;;;;;;17.41;59.62;100342.44;5112371;28;20108;-42
2022/10/12 02:24:06;;;;;;;10.68;6.60;;;;;;;17.44;59.96;100347.38;5112477;28;20139;-42
2022/10/12 02:26:35;;;;;;;10.50;7.05;;;;;;;17.20;60.79;100341.16;5112489;28;20034;-42
2022/10/12 02:29:05;;;;;;;10.55;6.47;;;;;;;17.31;60.05;100342.22;5112540;28;20158;-42
2022/10/12 02:32:02;;;;;;;11.82;7.00;;;;;;;17.29;60.41;100347.03;5112071;28;20077;-42
2022/10/12 02:34:35;;;;;;;8.43;5.95;;;;;;;17.32;60.43;100339.28;5112352;28;20027;-42
2022/10/12 02:37:16;;;;;;;11.25;6.45;;;;;;;17.30;60.20;100349.44;5112377;28;20467;-41
2022/10/12 02:39:53;;;;;;;8.02;6.10;;;;;;;17.16;60.24;100334.59;5111715;28;20100;-42
2022/10/12 02:42:28;;;;;;;8.85;6.10;;;;;;;17.41;59.95;100347.81;5112025;28;20031;-42
2022/10/12 02:44:57;;;;;;;11.80;6.38;;;;;;;17.41;59.84;100345.13;5112403;28;20095;-42
2022/10/12 02:47:25;;;;;;;9.20;5.40;;;;;;;17.44;59.42;100344.69;5110957;28;20397;-42
2022/10/12 02:49:53;;;;;;;10.47;5.37;;;;;;;17.18;59.70;100345.94;5112195;28;20039;-41
2022/10/12 02:52:18;;;;;;;8.48;5.13;;;;;;;17.36;59.97;100340.47;5112222;27;20092;-42
2022/10/12 02:54:44;;;;;;;9.18;5.30;;;;;;;17.35;60.35;100348.78;5111861;28;20169;-42
2022/10/12 02:57:10;;;;;;;7.13;5.38;;;;;;;17.48;59.38;100353.09;5111466;28;20065;-42
2022/10/12 02:59:35;;;;;;;7.18;4.90;;;;;;;17.29;59.60;100352.41;5111995;28;20023;-42
2022/10/12 03:02:01;;;;;;;8.80;5.10;;;;;;;17.42;59.38;100352.16;5111789;28;20027;-42
2022/10/12 03:04:26;;;;;;;7.22;5.35;;;;;;;17.38;59.61;100353.66;5111851;28;20032;-42
2022/10/12 03:06:52;;;;;;;8.18;5.20;;;;;;;17.27;59.61;100351.78;5111739;28;20666;-42
2022/10/12 03:09:17;;;;;;;8.30;5.32;;;;;;;17.33;59.86;100356.25;5111566;28;20019;-42
2022/10/12 03:11:43;;;;;;;7.93;5.22;;;;;;;17.48;59.89;100359.31;5111341;28;20102;-42
2022/10/12 03:14:13;;;;;;;8.18;5.03;;;;;;;17.38;60.27;100354.50;5111974;28;20031;-42
2022/10/12 03:16:39;;;;;;;7.15;4.97;;;;;;;17.23;60.21;100364.06;5111728;28;20019;-43
2022/10/12 03:19:05;;;;;;;10.40;5.13;;;;;;;17.05;60.85;100357.72;5111554;28;20101;-43
2022/10/12 03:21:30;;;;;;;6.65;5.15;;;;;;;17.15;60.33;100362.53;5111712;28;20515;-43
2022/10/12 03:23:56;;;;;;;9.23;5.40;;;;;;;16.85;61.66;100355.38;5111325;28;20528;-44
2022/10/12 03:26:21;;;;;;;7.65;5.70;;;;;;;17.17;60.79;100369.34;5111238;28;20015;-43
2022/10/12 03:28:46;;;;;;;17.52;13.02;;;;;;;17.17;60.90;100358.59;5111406;28;20038;-43
2022/10/12 03:31:12;;;;;;;15.77;10.00;;;;;;;17.27;60.79;100359.84;5111440;28;20118;-43
2022/10/12 03:33:37;;;;;;;46.58;27.73;;;;;;;16.86;61.55;100357.00;5111700;28;20470;-43
2022/10/12 03:36:03;;;;;;;7.30;5.43;;;;;;;16.46;63.15;100356.72;5111993;28;20042;-43
2022/10/12 03:38:28;;;;;;;8.23;4.85;;;;;;;16.61;62.75;100360.63;5111727;28;20020;-44
2022/10/12 03:40:54;;;;;;;10.38;5.30;;;;;;;16.57;63.02;100356.75;5110256;28;20391;-43
2022/10/12 03:43:20;;;;;;;8.00;4.78;;;;;;;17.05;61.46;100355.03;5111433;28;20409;-42
2022/10/12 03:45:45;;;;;;;7.25;4.50;;;;;;;17.05;60.96;100346.97;5110952;28;20416;-42
2022/10/12 03:48:10;;;;;;;6.05;4.53;;;;;;;17.07;61.04;100352.94;5111413;28;20015;-44
2022/10/12 03:50:36;;;;;;;7.10;4.60;;;;;;;17.09;60.78;100361.59;5116521;28;20057;-43
2022/10/12 03:53:03;;;;;;;7.25;4.57;;;;;;;17.23;60.25;100361.38;5118110;27;20020;-43
2022/10/12 03:55:29;;;;;;;8.10;4.70;;;;;;;17.28;60.29;100361.50;5117959;27;20055;-43
2022/10/12 03:57:54;;;;;;;6.40;4.13;;;;;;;17.31;59.84;100351.09;5117024;27;20086;-43
2022/10/12 04:00:20;;;;;;;8.95;4.70;;;;;;;17.36;59.86;100353.09;5117063;28;20065;-43
2022/10/12 04:02:46;;;;;;;8.30;4.43;;;;;;;17.10;60.13;100347.13;5117628;28;20031;-43
2022/10/12 04:05:11;;;;;;;8.05;3.97;;;;;;;17.05;60.89;100355.03;5117651;28;20019;-43
2022/10/12 04:07:36;;;;;;;6.72;4.22;;;;;;;17.02;60.98;100350.16;5117861;28;20483;-43
2022/10/12 04:10:03;;;;;;;5.40;3.88;;;;;;;17.09;60.47;100352.72;5117662;28;20102;-42
2022/10/12 04:12:28;;;;;;;6.00;4.15;;;;;;;17.15;60.43;100349.09;5117984;27;20020;-43
2022/10/12 04:14:54;;;;;;;8.02;4.10;;;;;;;17.22;59.97;100354.38;5117726;28;20409;-42
2022/10/12 04:17:19;;;;;;;6.93;4.30;;;;;;;17.33;59.67;100359.75;5117867;27;20212;-43
2022/10/12 04:19:45;;;;;;;4.78;4.20;;;;;;;17.25;59.08;100361.97;5118090;27;20426;-48
2022/10/12 04:22:11;;;;;;;6.38;3.75;;;;;;;16.86;60.85;100362.38;5117516;28;20051;-41
2022/10/12 04:24:36;;;;;;;12.57;4.45;;;;;;;16.92;60.41;100357.94;5117308;27;20027;-42
2022/10/12 04:27:02;;;;;;;7.35;4.00;;;;;;;16.98;60.79;100357.84;5117395;28;20023;-43
2022/10/12 04:29:28;;;;;;;7.53;4.00;;;;;;;17.18;60.44;100365.59;5117185;27;20433;-43
2022/10/12 04:31:53;;;;;;;7.65;4.13;;;;;;;17.29;59.95;100361.28;5117357;27;20027;-40
2022/10/12 04:34:19;;;;;;;9.57;3.90;;;;;;;17.15;59.94;100366.06;5117479;28;20028;-42
2022/10/12 04:36:44;;;;;;;8.13;3.60;;;;;;;16.95;60.46;100368.25;5117047;27;20024;-41
2022/10/12 04:39:10;;;;;;;5.40;3.53;;;;;;;16.72;61.33;100363.59;5116823;27;20463;-42
2022/10/12 04:41:36;;;;;;;10.45;3.97;;;;;;;16.90;60.90;100368.09;5115378;27;20051;-43
2022/10/12 04:44:01;;;;;;;6.68;3.83;;;;;;;16.46;61.96;100365.59;5100911;28;20385;-41
2022/10/12 04:46:27;;;;;;;7.57;4.07;;;;;;;16.55;63.32;100366.09;5114340;27;20035;-42
2022/10/12 04:48:52;;;;;;;6.70;4.18;;;;;;;16.83;61.48;100368.22;5116822;27;20031;-41
2022/10/12 04:51:17;;;;;;;7.20;4.55;;;;;;;16.99;62.14;100372.91;5116374;28;20151;-42
2022/10/12 04:53:43;;;;;;;7.35;4.18;;;;;;;17.07;61.28;100371.75;5116028;27;20032;-43
2022/10/12 04:56:08;;;;;;;7.50;4.05;;;;;;;17.00;60.67;100373.72;5115387;27;20374;-41
2022/10/12 04:58:34;;;;;;;10.23;4.30;;;;;;;17.03;60.66;100378.66;5114769;28;20477;-42
2022/10/12 05:01:00;;;;;;;5.53;4.15;;;;;;;16.94;61.20;100371.97;5114998;27;20043;-43
2022/10/12 05:03:25;;;;;;;8.23;4.65;;;;;;;17.29;61.41;100388.19;5112686;28;20042;-43
2022/10/12 05:05:51;;;;;;;10.00;5.40;;;;;;;17.56;64.21;100388.53;5111930;28;20448;-43
2022/10/12 05:08:17;;;;;;;11.73;4.88;;;;;;;18.02;59.84;100390.66;5110727;28;20027;-42
2022/10/12 05:10:42;;;;;;;11.40;5.40;;;;;;;18.21;57.45;100391.31;5108946;28;20026;-42
2022/10/12 05:13:08;;;;;;;12.30;5.07;;;;;;;18.09;59.26;100394.03;5092150;28;20153;-44
2022/10/12 05:15:34;;;;;;;12.20;5.30;;;;;;;18.16;59.72;100392.84;5098018;28;20619;-42
2022/10/12 05:17:59;;;;;;;16.70;11.23;;;;;;;18.04;58.69;100393.91;5111553;28;20107;-43
2022/10/12 05:20:24;;;;;;;22.40;12.80;;;;;;;18.04;60.78;100400.13;5111848;28;20336;-41
2022/10/12 05:22:50;;;;;;;10.15;5.88;;;;;;;17.96;60.11;100406.69;5111771;28;20073;-43
2022/10/12 05:25:15;;;;;;;13.77;6.45;;;;;;;18.44;58.56;100402.00;5112716;28;20023;-43
2022/10/12 05:27:41;;;;;;;12.40;6.32;;;;;;;18.41;57.00;100404.34;5112453;28;20710;-44
2022/10/12 05:30:07;;;;;;;11.48;6.60;;;;;;;18.27;56.72;100411.91;5112376;28;20110;-42
2022/10/12 05:32:33;;;;;;;12.48;6.53;;;;;;;18.20;57.14;100413.91;5112351;28;20180;-41
2022/10/12 05:34:58;;;;;;;14.13;6.22;;;;;;;18.45;56.53;100410.91;5111329;28;20130;-43
2022/10/12 05:37:23;;;;;;;14.77;6.47;;;;;;;18.19;56.53;100418.47;5109310;28;20027;-42
2022/10/12 05:39:50;;;;;;;10.18;6.72;;;;;;;17.81;57.76;100421.66;5106274;28;20115;-42
2022/10/12 05:42:16;;;;;;;12.82;6.53;;;;;;;17.87;57.68;100416.16;5109694;28;20036;-42
2022/10/12 05:44:41;;;;;;;12.07;7.03;;;;;;;17.79;58.21;100419.19;5109826;28;20458;-43
2022/10/12 05:47:06;;;;;;;17.98;7.15;;;;;;;17.88;58.20;100417.81;5110689;28;20031;-42
2022/10/12 05:49:32;;;;;;;36.83;22.88;;;;;;;17.58;59.03;100426.78;5110237;28;20129;-42
2022/10/12 05:51:57;;;;;;;18.60;9.00;;;;;;;17.51;59.37;100426.09;5105856;28;20102;-42
2022/10/12 05:54:23;;;;;;;11.48;7.18;;;;;;;17.41;59.31;100430.41;5106683;28;20168;-42
2022/10/12 05:56:48;;;;;;;11.50;7.35;;;;;;;17.43;59.29;100431.00;5111407;28;20023;-43
2022/10/12 05:59:13;;;;;;;15.13;7.20;;;;;;;17.55;59.44;100435.34;5110901;28;20502;-42
2022/10/12 06:01:39;;;;;;;14.05;7.10;;;;;;;17.54;59.04;100443.66;5110803;28;20027;-42
2022/10/12 06:04:04;;;;;;;10.90;7.13;;;;;;;17.35;59.98;100442.91;5110922;28;20301;-42
2022/10/12 06:06:30;;;;;;;12.18;7.82;;;;;;;17.42;59.37;100442.81;5110579;28;20040;-42
2022/10/12 06:08:55;;;;;;;14.35;7.30;;;;;;;17.61;59.03;100432.75;5108990;28;20042;-43
2022/10/12 06:11:21;;;;;;;15.55;7.70;;;;;;;17.83;58.55;100447.28;5108838;28;20111;-43
2022/10/12 06:13:46;;;;;;;11.68;7.57;;;;;;;17.75;58.75;100439.56;5109499;28;20024;-41
2022/10/12 06:16:12;;;;;;;16.55;7.53;;;;;;;17.87;58.31;100444.97;5110623;28;20111;-42
2022/10/12 06:18:37;;;;;;;11.90;7.32;;;;;;;17.95;58.20;100445.44;5110446;28;20114;-42
2022/10/12 06:21:03;;;;;;;12.48;7.40;;;;;;;17.86;58.09;100459.47;5110597;28;20135;-41
2022/10/12 06:23:28;;;;;;;17.27;7.68;;;;;;;17.79;58.39;100457.69;5109943;28;20034;-42
2022/10/12 06:25:53;;;;;;;14.80;7.50;;;;;;;17.72;58.53;100461.56;5108851;28;20023;-41
2022/10/12 06:28:20;;;;;;;14.15;7.75;;;;;;;17.82;57.98;100467.19;5109408;28;20028;-41
2022/10/12 06:30:51;;;;;;;11.77;7.45;;;;;;;18.04;57.64;100472.81;5110487;27;20598;-42
2022/10/12 06:33:16;;;;;;;12.85;7.65;;;;;;;18.06;58.02;100475.28;5111400;28;20019;-41
2022/10/12 06:35:42;;;;;;;14.50;7.22;;;;;;;18.10;57.36;100479.97;5111263;28;20059;-43
2022/10/12 06:38:07;;;;;;;11.95;7.90;;;;;;;18.09;57.30;100472.94;5111657;28;20084;-44
2022/10/12 06:40:33;;;;;;;10.95;7.28;;;;;;;18.17;57.36;100477.16;5111287;28;20496;-44
2022/10/12 06:43:01;;;;;;;15.43;7.15;;;;;;;18.27;56.38;100485.44;5111485;28;20474;-42
2022/10/12 06:45:29;;;;;;;13.18;6.65;;;;;;;18.19;56.73;100488.50;5111489;28;20428;-42
2022/10/12 06:47:55;;;;;;;11.40;6.88;;;;;;;18.00;57.18;100485.13;5111073;28;20102;-43
2022/10/12 06:50:21;;;;;;;9.57;6.45;;;;;;;18.12;56.67;100493.19;5110766;28;20087;-41
2022/10/12 06:52:46;;;;;;;10.88;6.45;;;;;;;17.95;57.37;100485.84;5110766;28;20456;-42
2022/10/12 06:55:12;;;;;;;11.35;6.25;;;;;;;18.27;57.15;100492.72;5110807;28;20059;-43
2022/10/12 06:57:38;;;;;;;9.70;5.90;;;;;;;18.51;56.05;100494.31;5110678;28;20030;-43
2022/10/12 07:00:05;;;;;;;10.27;5.93;;;;;;;18.70;55.17;100486.09;5111073;28;20035;-41
2022/10/12 07:02:30;;;;;;;11.52;5.85;;;;;;;18.77;54.85;100492.13;5110461;28;20043;-41
2022/10/12 07:04:56;;;;;;;11.10;6.10;;;;;;;18.78;55.24;100496.47;5110595;28;20453;-42
2022/10/12 07:07:21;;;;;;;15.32;10.25;;;;;;;18.91;54.64;100492.72;5110973;28;20123;-42
2022/10/12 07:09:47;;;;;;;11.60;5.82;;;;;;;18.93;54.64;100493.31;5110845;28;20518;-42
2022/10/12 07:12:12;;;;;;;10.02;5.90;;;;;;;18.99;54.08;100483.44;5110892;28;20535;-41
2022/10/12 07:14:38;;;;;;;6.45;5.00;;;;;;;19.06;54.08;100498.41;5111100;28;20031;-43
2022/10/12 07:17:03;;;;;;;7.60;4.80;;;;;;;19.09;53.52;100497.09;5110953;28;20023;-42
2022/10/12 07:19:28;;;;;;;10.52;5.18;;;;;;;19.17;53.52;100490.47;5110531;28;20030;-42
2022/10/12 07:21:54;;;;;;;11.90;5.30;;;;;;;19.23;53.46;100495.75;5110288;28;20153;-42
2022/10/12 07:24:19;;;;;;;10.20;4.60;;;;;;;19.30;53.09;100499.09;5109292;28;20100;-42
2022/10/12 07:26:45;;;;;;;7.40;4.32;;;;;;;19.31;52.63;100494.53;5110105;28;20439;-43
2022/10/12 07:29:10;;;;;;;9.55;4.57;;;;;;;19.16;52.99;100494.25;5110257;28;20104;-42
2022/10/12 07:31:36;;;;;;;10.57;4.70;;;;;;;19.37;52.90;100493.56;5110374;28;20019;-41
2022/10/12 07:34:01;;;;;;;7.20;4.53;;;;;;;19.41;52.42;100501.97;5110716;28;20024;-43
2022/10/12 07:36:27;;;;;;;8.65;4.70;;;;;;;19.59;52.27;100496.38;5110331;28;20031;-42
2022/10/12 07:38:52;;;;;;;9.07;4.43;;;;;;;19.75;52.00;100502.84;5110203;28;20032;-42
2022/10/12 07:41:18;;;;;;;7.80;4.03;;;;;;;19.72;52.15;100493.38;5110242;28;20218;-41
2022/10/12 07:43:43;;;;;;;7.72;3.67;;;;;;;19.67;52.03;100501.34;5110548;28;20031;-42
2022/10/12 07:46:10;;;;;;;6.43;3.22;;;;;;;19.63;52.11;100499.38;5110181;28;20125;-42
2022/10/12 07:48:36;;;;;;;6.65;3.03;;;;;;;19.51;51.22;100494.88;5110256;28;20039;-43
2022/10/12 07:51:06;;;;;;;5.88;2.60;;;;;;;19.72;51.22;100490.66;5110376;28;20483;-43
2022/10/12 07:53:36;;;;;;;3.60;2.40;;;;;;;19.86;51.47;100496.53;5110176;28;20019;-43
2022/10/12 07:56:04;;;;;;;4.50;2.78;;;;;;;20.22;50.01;100491.66;5109860;28;20062;-45
2022/10/12 07:58:30;;;;;;;7.53;3.72;;;;;;;20.18;49.30;100489.69;5109726;28;20020;-42
2022/10/12 08:01:02;;;;;;;7.45;2.70;;;;;;;20.02;50.11;100489.47;5109876;28;20423;-43
2022/10/12 08:03:28;;;;;;;3.85;2.90;;;;;;;19.80;50.34;100494.00;5109997;28;20456;-43
2022/10/12 08:05:53;;;;;;;6.78;2.40;;;;;;;19.95;49.77;100493.41;5110180;28;20098;-43
2022/10/12 08:08:19;;;;;;;7.90;2.90;;;;;;;19.78;50.35;100488.88;5110253;28;20050;-42
2022/10/12 08:10:44;;;;;;;5.45;2.70;;;;;;;20.02;50.37;100491.38;5110102;28;20042;-43
2022/10/12 08:13:09;;;;;;;5.60;2.90;;;;;;;20.46;48.40;100486.81;5109851;28;20367;-42
2022/10/12 08:15:35;;;;;;;5.65;3.08;;;;;;;20.62;48.64;100487.03;5109123;28;20126;-43
2022/10/12 08:18:00;;;;;;;4.90;3.40;;;;;;;20.67;48.69;100487.13;5110077;28;20122;-42
2022/10/12 08:20:26;;;;;;;5.75;2.90;;;;;;;20.57;48.44;100495.09;5110313;28;20019;-41
2022/10/12 08:22:52;;;;;;;6.25;3.10;;;;;;;20.48;48.83;100492.00;5110112;28;20408;-43
2022/10/12 08:25:17;;;;;;;3.90;2.83;;;;;;;20.46;48.43;100491.44;5110147;28;20020;-42
2022/10/12 08:27:43;;;;;;;7.13;4.00;;;;;;;20.75;48.44;100497.47;5109480;28;20030;-42
2022/10/12 08:30:09;;;;;;;5.03;3.60;;;;;;;20.34;49.25;100493.44;5109940;28;20363;-42
2022/10/12 08:32:34;;;;;;;8.23;4.05;;;;;;;20.77;48.44;100495.38;5110664;28;20038;-43
2022/10/12 08:35:00;;;;;;;6.32;3.85;;;;;;;20.55;48.35;100492.63;5110191;28;20026;-43
2022/10/12 08:37:27;;;;;;;5.82;3.67;;;;;;;20.69;48.90;100499.34;5110745;28;20103;-43
2022/10/12 08:39:53;;;;;;;5.85;3.80;;;;;;;20.88;48.97;100497.09;5106890;28;20039;-42
2022/10/12 08:42:24;;;;;;;8.93;3.80;;;;;;;21.38;47.28;100500.59;5113425;28;20012;-42
2022/10/12 08:45:11;;;;;;;7.00;3.38;;;;;;;21.79;46.17;100494.72;5113589;28;20182;-43
2022/10/12 08:47:50;;;;;;;3.80;2.80;;;;;;;21.40;46.23;100500.31;5113822;28;20450;-43
2022/10/12 08:50:25;;;;;;;3.73;2.90;;;;;;;21.52;46.09;100501.00;5113716;28;20023;-43
2022/10/12 08:52:59;;;;;;;4.50;2.55;;;;;;;21.33;46.12;100497.81;5113486;28;20032;-42
2022/10/12 08:58:48;;;;;;;3.55;2.80;;;;;;;22.39;44.83;100495.38;5093309;28;20193;-43
2022/10/12 09:01:35;;;;;;;4.95;2.85;;;;;;;22.77;44.31;100488.75;5104893;28;20049;-43
2022/10/12 09:04:07;;;;;;;7.45;2.83;;;;;;;22.98;44.47;100486.91;5113205;28;20419;-44
2022/10/12 09:06:46;;;;;;;7.15;3.97;;;;;;;23.12;44.97;100486.44;5113244;28;20038;-45
2022/10/12 09:09:12;;;;;;;5.35;3.50;;;;;;;23.37;44.59;100496.50;5112726;28;20032;-42
2022/10/12 09:11:40;;;;;;;7.78;3.25;;;;;;;23.70;43.28;100483.44;5111939;28;20467;-42
2022/10/12 09:14:34;;;;;;;34.88;26.48;;;;;;;23.91;42.10;100492.44;5112958;28;20027;-41
2022/10/12 09:17:04;;;;;;;6.57;4.03;;;;;;;23.64;41.07;100498.13;5108778;28;20043;-41
2022/10/12 09:19:37;;;;;;;7.38;3.50;;;;;;;23.51;40.98;100496.78;5112062;28;20027;-41
2022/10/12 09:22:05;;;;;;;5.00;3.00;;;;;;;23.51;40.55;100492.13;5111842;28;20428;-42
2022/10/12 09:24:35;;;;;;;5.50;3.28;;;;;;;23.13;41.41;100504.31;5112290;28;20027;-43
2022/10/12 09:27:15;;;;;;;5.53;3.17;;;;;;;23.00;42.56;100492.88;5112079;28;20483;-44
2022/10/12 09:29:44;;;;;;;5.53;3.10;;;;;;;22.93;41.88;100492.31;5113156;27;20020;-46
2022/10/12 09:32:32;;;;;;;6.68;3.05;;;;;;;23.14;41.43;100495.13;5112863;28;20027;-42
2022/10/12 09:34:58;;;;;;;6.20;2.90;;;;;;;23.46;40.95;100488.63;5112206;28;20016;-43
2022/10/12 09:37:27;;;;;;;5.95;3.20;;;;;;;23.60;40.72;100500.56;5113148;28;20023;-44
2022/10/12 09:39:54;;;;;;;12.43;3.92;;;;;;;23.61;40.16;100489.44;5112656;28;20490;-41
2022/10/12 09:42:19;;;;;;;62.85;39.38;;;;;;;23.83;40.60;100491.06;5112534;28;20023;-45
2022/10/12 09:45:12;;;;;;;96.05;56.65;;;;;;;24.10;40.21;100485.31;5112196;28;20047;-42
2022/10/12 09:47:38;;;;;;;37.17;21.45;;;;;;;24.54;39.43;100492.00;5111785;28;20020;-42
2022/10/12 09:50:05;;;;;;;8.63;5.57;;;;;;;24.54;38.91;100490.13;5111898;28;20043;-43
2022/10/12 09:52:44;;;;;;;6.22;3.53;;;;;;;24.45;39.00;100489.03;5110457;28;20032;-44
2022/10/12 09:55:22;;;;;;;4.55;3.20;;;;;;;24.17;39.06;100482.31;5110542;28;20023;-44
2022/10/12 09:58:00;;;;;;;4.57;3.03;;;;;;;24.23;39.56;100480.41;5110696;28;20031;-42
2022/10/12 10:00:28;;;;;;;9.93;3.33;;;;;;;23.73;39.84;100477.47;5110584;28;20027;-43
2022/10/12 10:02:54;;;;;;;4.63;2.88;;;;;;;23.90;38.44;100475.31;5111159;28;20012;-42
2022/10/12 10:05:27;;;;;;;5.90;3.10;;;;;;;24.06;38.72;100469.84;5111254;28;20349;-45
2022/10/12 10:08:17;;;;;;;4.93;2.95;;;;;;;24.09;39.32;100469.31;5111880;28;20024;-45
2022/10/12 10:10:52;;;;;;;5.40;2.85;;;;;;;24.67;37.52;100468.81;5111610;28;20103;-45
2022/10/12 10:13:20;;;;;;;7.35;3.13;;;;;;;24.56;37.29;100463.44;5112005;28;20015;-46
2022/10/12 10:15:49;;;;;;;5.60;2.90;;;;;;;24.23;36.62;100467.59;5111626;28;20051;-42
2022/10/12 10:18:35;;;;;;;5.10;2.80;;;;;;;24.16;36.32;100454.31;5111923;28;20131;-44
2022/10/12 10:21:04;;;;;;;6.30;3.10;;;;;;;24.10;36.73;100455.41;5111457;28;20112;-46
2022/10/12 10:23:52;;;;;;;6.43;2.97;;;;;;;23.95;38.01;100434.53;5111539;28;20019;-43
2022/10/12 10:26:20;;;;;;;5.68;3.00;;;;;;;24.64;37.10;100451.16;5109850;28;20114;-44
2022/10/12 10:28:48;;;;;;;7.82;3.00;;;;;;;24.70;37.15;100455.47;5109714;28;20031;-42
2022/10/12 10:31:15;;;;;;;9.73;3.10;;;;;;;24.66;36.96;100448.16;5111895;28;20020;-43
2022/10/12 10:33:42;;;;;;;5.53;3.00;;;;;;;24.77;34.58;100447.81;5111883;28;20023;-43
2022/10/12 10:36:23;;;;;;;4.20;2.70;;;;;;;24.24;34.94;100433.91;5111680;28;20479;-43
2022/10/12 10:38:56;;;;;;;4.93;2.50;;;;;;;23.87;35.23;100431.56;5111560;28;20031;-42
2022/10/12 10:41:27;;;;;;;6.43;2.67;;;;;;;23.81;36.15;100426.13;5111372;28;20028;-42
2022/10/12 10:43:53;;;;;;;6.63;2.88;;;;;;;24.22;36.21;100429.81;5111317;28;20016;-42
2022/10/12 10:46:25;;;;;;;6.75;2.95;;;;;;;24.76;35.43;100429.03;5111288;28;20020;-41
2022/10/12 10:48:57;;;;;;;3.58;2.90;;;;;;;25.05;35.51;100420.94;5111279;28;20019;-44
2022/10/12 10:51:38;;;;;;;5.07;2.53;;;;;;;25.55;34.94;100423.56;5111076;28;20034;-43
2022/10/12 10:54:14;;;;;;;5.30;2.88;;;;;;;25.95;34.46;100410.66;5111317;28;20034;-44
2022/10/12 10:56:40;;;;;;;7.40;3.20;;;;;;;26.34;33.79;100417.81;5111101;28;20383;-42
2022/10/12 10:59:16;;;;;;;7.07;3.30;;;;;;;25.96;34.00;100416.91;5110682;28;20043;-43
2022/10/12 11:02:02;;;;;;;5.57;3.20;;;;;;;25.77;34.03;100416.81;5111388;28;20027;-43
2022/10/12 11:04:40;;;;;;;7.65;3.47;;;;;;;25.51;35.12;100414.31;5111561;28;20223;-43
2022/10/12 11:07:30;;;;;;;5.40;3.50;;;;;;;25.73;34.35;100401.03;5111239;28;20125;-42
2022/10/12 11:10:00;;;;;;;4.72;3.25;;;;;;;25.88;34.75;100404.69;5110912;28;20024;-43
2022/10/12 11:12:39;;;;;;;7.55;3.20;;;;;;;26.22;34.14;100395.59;5111143;28;20027;-45
2022/10/12 11:15:14;;;;;;;8.48;4.07;;;;;;;26.39;33.87;100397.81;5111057;28;20068;-45
2022/10/12 11:17:56;;;;;;;6.10;3.40;;;;;;;26.58;33.77;100395.94;5110748;28;20051;-45
2022/10/12 11:20:44;;;;;;;5.95;3.08;;;;;;;26.77;33.58;100398.69;5110808;28;20074;-42
2022/10/12 11:23:27;;;;;;;6.43;3.60;;;;;;;26.34;33.27;100383.16;5090158;28;20044;-41
2022/10/12 11:26:20;;;;;;;11.75;4.00;;;;;;;26.12;33.84;100383.72;5089920;28;20031;-40
2022/10/12 11:28:45;;;;;;;16.20;11.07;;;;;;;25.97;33.88;100380.34;5090070;28;20051;-43
2022/10/12 11:31:23;;;;;;;7.07;4.57;;;;;;;26.06;34.19;100379.41;5089772;28;20488;-42
2022/10/12 11:33:50;;;;;;;5.82;3.40;;;;;;;26.52;33.69;100378.00;5089863;28;20058;-45